createdAt,value
2023-02-05T00:00:02.000Z,4.79
2023-02-05T00:05:02.000Z,4.76
2023-02-05T00:10:02.000Z,4.68
2023-02-05T00:15:03.000Z,4.60
2023-02-05T00:20:02.000Z,4.35
2023-02-05T00:25:02.000Z,4.38
2023-02-05T00:30:02.000Z,4.17
2023-02-05T00:35:02.000Z,4.13
2023-02-05T00:40:03.000Z,4.15
2023-02-05T00:45:02.000Z,4.05
2023-02-05T00:50:03.000Z,3.93
2023-02-05T00:55:03.000Z,3.79
2023-02-05T01:00:03.000Z,3.58
2023-02-05T01:05:03.000Z,3.55
2023-02-05T01:10:02.000Z,3.55
2023-02-05T01:15:02.000Z,3.28
2023-02-05T01:20:03.000Z,3.10
2023-02-05T01:25:03.000Z,3.04
2023-02-05T01:30:02.000Z,2.95
2023-02-05T01:35:02.000Z,2.91
2023-02-05T01:40:03.000Z,2.90
2023-02-05T01:45:02.000Z,2.94
2023-02-05T01:50:03.000Z,2.98
2023-02-05T01:55:02.000Z,2.99
2023-02-05T02:00:03.000Z,3.00
2023-02-05T02:05:03.000Z,2.95
2023-02-05T02:10:02.000Z,2.75
2023-02-05T02:15:02.000Z,2.56
2023-02-05T02:20:02.000Z,2.42
2023-02-05T02:25:02.000Z,2.31
2023-02-05T02:30:02.000Z,2.15
2023-02-05T02:35:02.000Z,2.01
2023-02-05T02:40:02.000Z,1.92
2023-02-05T02:45:04.000Z,1.79
2023-02-05T02:50:02.000Z,1.65
2023-02-05T02:55:02.000Z,1.57
2023-02-05T03:00:03.000Z,1.55
2023-02-05T03:05:02.000Z,1.47
2023-02-05T03:10:03.000Z,1.43
2023-02-05T03:15:02.000Z,1.34
2023-02-05T03:20:02.000Z,1.27
2023-02-05T03:25:02.000Z,1.20
2023-02-05T03:30:02.000Z,1.13
2023-02-05T03:35:02.000Z,1.05
2023-02-05T03:40:02.000Z,0.97
2023-02-05T03:45:02.000Z,0.89
2023-02-05T03:50:03.000Z,0.82
2023-02-05T03:55:02.000Z,0.78
2023-02-05T04:00:02.000Z,0.74
2023-02-05T04:05:03.000Z,0.69
2023-02-05T04:10:02.000Z,0.61
2023-02-05T04:15:02.000Z,0.55
2023-02-05T04:20:02.000Z,0.51
2023-02-05T04:25:02.000Z,0.45
2023-02-05T04:30:03.000Z,0.42
2023-02-05T04:35:02.000Z,0.32
2023-02-05T04:40:02.000Z,0.28
2023-02-05T04:45:02.000Z,0.24
2023-02-05T04:50:02.000Z,0.21
2023-02-05T04:55:03.000Z,0.29
2023-02-05T05:00:03.000Z,0.34
2023-02-05T05:05:02.000Z,0.24
2023-02-05T05:10:02.000Z,0.25
2023-02-05T05:15:03.000Z,0.21
2023-02-05T05:20:03.000Z,0.19
2023-02-05T05:25:03.000Z,0.17
2023-02-05T05:30:03.000Z,0.15
2023-02-05T05:35:02.000Z,0.07
2023-02-05T05:40:02.000Z,-0.02
2023-02-05T05:45:02.000Z,-0.08
2023-02-05T05:50:03.000Z,-0.12
2023-02-05T05:55:03.000Z,-0.14
2023-02-05T06:00:02.000Z,-0.20
2023-02-05T06:05:03.000Z,-0.19
2023-02-05T06:10:02.000Z,-0.23
2023-02-05T06:15:03.000Z,-0.23
2023-02-05T06:20:03.000Z,-0.26
2023-02-05T06:25:03.000Z,-0.32
2023-02-05T06:30:03.000Z,-0.36
2023-02-05T06:35:03.000Z,-0.38
2023-02-05T06:40:03.000Z,-0.38
2023-02-05T06:45:03.000Z,-0.35
2023-02-05T06:50:03.000Z,-0.37
2023-02-05T06:55:03.000Z,-0.40
2023-02-05T07:00:03.000Z,-0.44
2023-02-05T07:05:03.000Z,-0.42
2023-02-05T07:10:03.000Z,-0.19
2023-02-05T07:15:03.000Z,-0.29
2023-02-05T07:20:03.000Z,-0.39
2023-02-05T07:25:03.000Z,-0.34
2023-02-05T07:30:03.000Z,-0.17
2023-02-05T07:35:03.000Z,-0.09
2023-02-05T07:40:03.000Z,-0.12
2023-02-05T07:45:03.000Z,0.01
2023-02-05T07:50:03.000Z,0.10
2023-02-05T07:55:03.000Z,0.25
2023-02-05T08:00:03.000Z,0.21
2023-02-05T08:05:03.000Z,0.42
2023-02-05T08:10:03.000Z,0.74
2023-02-05T08:15:03.000Z,0.96
2023-02-05T08:20:03.000Z,1.11
2023-02-05T08:25:03.000Z,1.26
2023-02-05T08:30:03.000Z,1.43
2023-02-05T08:35:03.000Z,1.53
2023-02-05T08:40:03.000Z,1.60
2023-02-05T08:45:03.000Z,1.65
2023-02-05T08:50:03.000Z,1.75
2023-02-05T08:55:03.000Z,1.80
2023-02-05T09:00:03.000Z,1.90
2023-02-05T09:05:03.000Z,2.11
2023-02-05T09:10:03.000Z,2.29
2023-02-05T09:15:03.000Z,2.46
2023-02-05T09:20:03.000Z,2.61
2023-02-05T09:25:03.000Z,2.71
2023-02-05T09:30:03.000Z,2.88
2023-02-05T09:35:03.000Z,2.98
2023-02-05T09:40:03.000Z,3.08
2023-02-05T09:45:03.000Z,3.09
2023-02-05T09:50:03.000Z,3.13
2023-02-05T09:55:03.000Z,3.11
2023-02-05T10:00:03.000Z,3.20
2023-02-05T10:05:03.000Z,3.18
2023-02-05T10:10:03.000Z,3.18
2023-02-05T10:15:03.000Z,3.21
2023-02-05T10:20:03.000Z,3.44
2023-02-05T10:25:03.000Z,3.56
2023-02-05T10:30:03.000Z,3.56
2023-02-05T10:35:03.000Z,3.58
2023-02-05T10:40:03.000Z,3.68
2023-02-05T10:45:03.000Z,3.75
2023-02-05T10:50:03.000Z,3.84
2023-02-05T10:55:03.000Z,3.94
2023-02-05T11:00:03.000Z,4.17
2023-02-05T11:05:03.000Z,4.26
2023-02-05T11:10:03.000Z,4.33
2023-02-05T11:15:03.000Z,4.43
2023-02-05T11:20:03.000Z,4.51
2023-02-05T11:25:03.000Z,4.59
2023-02-05T11:30:03.000Z,4.67
2023-02-05T11:35:03.000Z,4.69
2023-02-05T11:40:03.000Z,4.72
2023-02-05T11:45:03.000Z,4.78
2023-02-05T11:50:03.000Z,4.88
2023-02-05T11:55:03.000Z,4.93
2023-02-05T12:00:03.000Z,4.96
2023-02-05T12:05:03.000Z,5.02
2023-02-05T12:10:03.000Z,5.03
2023-02-05T12:15:03.000Z,5.08
2023-02-05T12:20:03.000Z,5.11
2023-02-05T12:25:03.000Z,5.12
2023-02-05T12:30:03.000Z,5.11
2023-02-05T12:35:03.000Z,5.13
2023-02-05T12:40:03.000Z,5.16
2023-02-05T12:45:03.000Z,5.18
2023-02-05T12:50:03.000Z,5.18
2023-02-05T12:55:03.000Z,4.82
2023-02-05T13:00:03.000Z,5.16
2023-02-05T13:05:03.000Z,5.16
2023-02-05T13:10:03.000Z,5.01
2023-02-05T13:15:03.000Z,5.00
2023-02-05T13:20:03.000Z,5.11
2023-02-05T13:25:03.000Z,5.09
2023-02-05T13:30:03.000Z,5.06
2023-02-05T13:35:03.000Z,4.87
2023-02-05T13:40:03.000Z,4.86
2023-02-05T13:45:03.000Z,4.83
2023-02-05T13:50:03.000Z,4.82
2023-02-05T13:55:03.000Z,4.83
2023-02-05T14:00:03.000Z,4.80
2023-02-05T14:05:03.000Z,4.82
2023-02-05T14:10:03.000Z,4.86
2023-02-05T14:15:03.000Z,4.81
2023-02-05T14:20:03.000Z,4.82
2023-02-05T14:25:04.000Z,4.80
2023-02-05T14:30:03.000Z,4.84
2023-02-05T14:35:03.000Z,4.83
2023-02-05T14:40:03.000Z,4.84
2023-02-05T14:45:03.000Z,4.87
2023-02-05T14:50:03.000Z,4.84
2023-02-05T14:55:03.000Z,4.82
2023-02-05T15:00:04.000Z,4.78
2023-02-05T15:05:03.000Z,4.79
2023-02-05T15:10:03.000Z,4.77
2023-02-05T15:15:03.000Z,4.79
2023-02-05T15:20:03.000Z,4.78
2023-02-05T15:25:03.000Z,4.77
2023-02-05T15:30:03.000Z,4.76
2023-02-05T15:35:03.000Z,4.75
2023-02-05T15:40:03.000Z,4.76
2023-02-05T15:45:03.000Z,4.76
2023-02-05T15:50:03.000Z,4.71
2023-02-05T15:55:03.000Z,4.68
2023-02-05T16:00:03.000Z,4.66
2023-02-05T16:05:03.000Z,4.67
2023-02-05T16:10:04.000Z,4.64
2023-02-05T16:15:03.000Z,4.63
2023-02-05T16:20:03.000Z,4.54
2023-02-05T16:25:03.000Z,4.49
2023-02-05T16:30:03.000Z,4.48
2023-02-05T16:35:03.000Z,4.46
2023-02-05T16:40:04.000Z,4.42
2023-02-05T16:45:03.000Z,4.38
2023-02-05T16:50:03.000Z,4.41
2023-02-05T16:55:03.000Z,4.39
2023-02-05T17:00:03.000Z,4.41
2023-02-05T17:05:04.000Z,4.49
2023-02-05T17:10:03.000Z,4.38
2023-02-05T17:15:05.000Z,4.49
2023-02-05T17:20:04.000Z,4.38
2023-02-05T17:25:03.000Z,4.37
2023-02-05T17:30:03.000Z,4.35
2023-02-05T17:35:03.000Z,4.37
2023-02-05T17:40:03.000Z,4.36
2023-02-05T17:45:03.000Z,4.37
2023-02-05T17:50:03.000Z,4.37
2023-02-05T17:55:03.000Z,4.35
2023-02-05T18:00:03.000Z,4.35
2023-02-05T18:05:03.000Z,4.30
2023-02-05T18:10:03.000Z,4.30
2023-02-05T18:15:03.000Z,4.27
2023-02-05T18:20:03.000Z,4.26
2023-02-05T18:25:03.000Z,4.22
2023-02-05T18:30:03.000Z,4.22
2023-02-05T18:35:04.000Z,4.16
2023-02-05T18:40:03.000Z,4.19
2023-02-05T18:45:03.000Z,4.20
2023-02-05T18:50:03.000Z,4.18
2023-02-05T18:55:04.000Z,4.26
2023-02-05T19:00:05.000Z,4.31
2023-02-05T19:05:03.000Z,4.14
2023-02-05T19:10:03.000Z,4.14
2023-02-05T19:15:03.000Z,4.14
2023-02-05T19:20:03.000Z,4.14
2023-02-05T19:25:03.000Z,4.14
2023-02-05T19:30:03.000Z,4.12
2023-02-05T19:35:03.000Z,4.10
2023-02-05T19:40:03.000Z,4.09
2023-02-05T19:45:03.000Z,4.08
2023-02-05T19:50:03.000Z,4.10
2023-02-05T19:55:04.000Z,4.13
2023-02-05T20:00:03.000Z,4.18
2023-02-05T20:05:03.000Z,4.21
2023-02-05T20:10:03.000Z,4.19
2023-02-05T20:15:03.000Z,4.19
2023-02-05T20:20:03.000Z,4.22
2023-02-05T20:25:04.000Z,4.27
2023-02-05T20:30:04.000Z,4.27
2023-02-05T20:35:04.000Z,4.27
2023-02-05T20:40:04.000Z,4.30
2023-02-05T20:45:04.000Z,4.32
2023-02-05T20:50:05.000Z,4.34
2023-02-05T20:55:04.000Z,4.24
2023-02-05T21:00:04.000Z,4.33
2023-02-05T21:05:04.000Z,4.21
2023-02-05T21:10:03.000Z,4.17
2023-02-05T21:15:03.000Z,4.16
2023-02-05T21:20:04.000Z,4.19
2023-02-05T21:25:03.000Z,4.15
2023-02-05T21:30:03.000Z,4.15
2023-02-05T21:35:03.000Z,4.10
2023-02-05T21:40:03.000Z,4.09
2023-02-05T21:45:03.000Z,4.07
2023-02-05T21:50:03.000Z,4.03
2023-02-05T21:55:03.000Z,4.03
2023-02-05T22:00:03.000Z,4.02
2023-02-05T22:05:03.000Z,3.98
2023-02-05T22:10:03.000Z,3.93
2023-02-05T22:15:03.000Z,3.91
2023-02-05T22:20:04.000Z,3.95
2023-02-05T22:25:03.000Z,3.91
2023-02-05T22:30:03.000Z,3.92
2023-02-05T22:35:03.000Z,3.90
2023-02-05T22:40:03.000Z,3.88
2023-02-05T22:45:03.000Z,3.86
2023-02-05T22:50:03.000Z,3.82
2023-02-05T22:55:03.000Z,3.82
2023-02-05T23:00:06.000Z,3.98
2023-02-05T23:05:03.000Z,3.85
2023-02-05T23:10:03.000Z,3.86
2023-02-05T23:15:03.000Z,3.84
2023-02-05T23:20:03.000Z,3.86
2023-02-05T23:25:03.000Z,3.84
2023-02-05T23:30:03.000Z,3.84
2023-02-05T23:35:03.000Z,3.80
2023-02-05T23:40:03.000Z,3.79
2023-02-05T23:45:03.000Z,3.78
2023-02-05T23:50:04.000Z,3.79
2023-02-05T23:55:03.000Z,3.76
